Hideaway Lake (907, 908, 1021, 1022) Station Data

Red Flag Warning: No
Fire Weather Zone: 250
SDGE Region: North East
Lat/Lon: 33.24/-117.045

Observations

Time Wind Speed/Gust Temp(F) RH Fuel Moist Fuel Temp(F) Dewpt(F) Tmax(F) Tmin(F) Accum Precip 10-min Precip SL Press(mb)
2/27 11:40pm 242 6 G 10 49° 100% - - 49° 53.3° 41.3° - - -
2/27 11:20pm 304 0 G 2 49° 100% - - 49° 53.3° 41.3° - - -
2/27 11:10pm 307 0 G 1 49° 100% - - 49° 53.3° 41.3° - - -
2/27 11:00pm 340 1 G 2 49° 100% - - 49° 53.3° 41.3° - - -
2/27 10:50pm 317 1 G 2 49° 100% - - 49° 53.3° 41.3° - - -
2/27 10:40pm 295 2 G 3 49° 100% - - 49° 53.3° 41.3° - - -
2/27 10:30pm 252 3 G 4 49° 100% - - 49° 53.3° 41.3° - - -
2/27 10:20pm 235 2 G 4 50° 100% - - 50° 53.3° 41.3° - - -
2/27 10:10pm 293 2 G 3 50° 100% - - 50° 53.3° 41.3° - - -
2/27 10:00pm 293 2 G 5 50° 100% - - 50° 53.3° 41.3° - - -
2/27 9:50pm 290 2 G 4 50° 100% - - 50° 53.3° 41.3° - - -
2/27 9:40pm 280 3 G 8 50° 100% - - 50° 53.3° 41.3° - - -
2/27 9:30pm 282 4 G 7 50° 100% - - 50° 53.3° 41.3° - - -
2/27 9:20pm 286 4 G 7 50° 100% - - 50° 53.3° 41.3° - - -
2/27 9:10pm 285 4 G 7 50° 100% - - 50° 53.3° 41.3° - - -
2/27 9:00pm 272 2 G 4 51° 100% - - 51° 53.3° 41.3° - - -
2/27 8:50pm 251 2 G 3 51° 100% - - 51° 53.3° 41.3° - - -
2/27 8:40pm 232 1 G 3 51° 100% - - 51° 53.3° 41.3° - - -
2/27 8:30pm 266 1 G 3 50° 100% - - 50° 53.3° 41.3° - - -
2/27 8:20pm 290 2 G 4 50° 100% - - 50° 53.3° 41.3° - - -
2/27 8:10pm 296 3 G 5 51° 100% - - 51° 53.3° 41.3° - - -
2/27 8:00pm 249 2 G 5 51° 100% - - 51° 53.3° 41.3° - - -
2/27 7:50pm 254 3 G 6 51° 100% - - 51° 53.3° 41.3° - - -
2/27 7:40pm 240 5 G 9 51° 100% - - 51° 53.3° 41.3° - - -
2/27 7:30pm 232 8 G 15 51° 100% - - 51° 53.3° 41.3° - - -
2/27 7:20pm 223 7 G 16 51° 99% - - 51° 53.3° 41.3° - - -
2/27 7:10pm 206 8 G 19 51° 99% - - 51° 53.3° 41.3° - - -
2/27 7:00pm 203 8 G 16 51° 99% - - 51° 53.3° 41.3° - - -
2/27 6:50pm 226 8 G 16 51° 99% - - 51° 53.3° 41.3° - - -
2/27 6:40pm 223 8 G 18 51° 99% - - 51° 53.3° 41.3° - - -
2/27 6:30pm 219 7 G 14 52° 99% - - 51° 53.3° 41.3° - - -
2/27 6:20pm 220 6 G 14 52° 99% - - 51° 53.3° 41.3° - - -
2/27 6:10pm 213 7 G 15 52° 99% - - 51° 53.3° 41.3° - - -
2/27 6:00pm 211 9 G 22 52° 99% - - 51° 53.3° 41.3° - - -
2/27 5:50pm 199 10 G 20 52° 99% - - 51° 53.3° 41.3° - - -
2/27 5:40pm 207 8 G 22 52° 99% - - 51° 53.3° 41.3° - - -
2/27 5:30pm 215 9 G 20 51° 100% - - 51° 53.3° 41.3° - - -
2/27 5:20pm 205 8 G 18 52° 100% - - 52° 53.3° 41.3° - - -
2/27 5:10pm 222 5 G 15 52° 100% - - 52° 53.3° 41.3° - - -
2/27 5:00pm 204 4 G 10 52° 99% - - 52° 53.3° 41.3° - - -
2/27 4:50pm 205 6 G 16 52° 99% - - 52° 53.3° 41.3° - - -
2/27 4:40pm 216 6 G 14 52° 99% - - 52° 53.3° 41.3° - - -
2/27 4:30pm 196 6 G 14 52° 99% - - 52° 53.3° 41.3° - - -
2/27 4:20pm 186 8 G 17 52° 98% - - 52° 53.3° 41.3° - - -
2/27 4:10pm 194 8 G 20 52° 99% - - 52° 53.3° 41.3° - - -
2/27 4:00pm 188 7 G 17 52° 99% - - 52° 53.3° 41.3° - - -
2/27 3:50pm 211 7 G 18 52° 99% - - 52° 53.3° 41.3° - - -
2/27 3:40pm 192 8 G 19 52° 99% - - 52° 53.3° 41.3° - - -
2/27 3:30pm 191 8 G 18 52° 99% - - 52° 53.3° 41.3° - - -
2/27 3:20pm 189 7 G 13 52° 99% - - 52° 53.3° 41.3° - - -
2/27 3:10pm 192 5 G 14 53° 99% - - 52° 53.3° 41.3° - - -
2/27 3:00pm 209 9 G 19 53° 98% - - 52° 53.3° 41.3° - - -
2/27 2:50pm 195 10 G 22 53° 98% - - 52° 53.3° 41.3° - - -
2/27 2:40pm 189 9 G 23 53° 99% - - 52° 53.3° 41.3° - - -
2/27 2:30pm 180 9 G 20 53° 99% - - 53° 53.3° 41.3° - - -
2/27 2:20pm 184 8 G 17 53° 99% - - 53° 53.3° 41.3° - - -
2/27 2:10pm 179 10 G 21 53° 99% - - 53° 53.3° 41.3° - - -
2/27 2:00pm 194 10 G 22 53° 99% - - 53° 53.3° 41.3° - - -
2/27 1:50pm 200 6 G 17 53° 99% - - 53° 53.3° 41.3° - - -
2/27 1:40pm 195 8 G 23 53° 99% - - 53° 53.3° 41.3° - - -
2/27 1:30pm 192 8 G 15 53° 100% - - 53° 53.3° 41.3° - - -
2/27 1:20pm 193 6 G 17 53° 100% - - 53° 53.3° 41.3° - - -
2/27 1:10pm 197 8 G 18 53° 100% - - 53° 53.2° 41.3° - - -
2/27 1:00pm 178 5 G 10 53° 100% - - 53° 53.2° 41.3° - - -
2/27 12:50pm 176 5 G 10 53° 100% - - 52° 53.2° 41.3° - - -
2/27 12:40pm 178 6 G 12 53° 100% - - 52° 53.2° 41.3° - - -
2/27 12:30pm 173 7 G 14 52° 100% - - 52° 53.2° 41.3° - - -
2/27 12:20pm 173 6 G 12 52° 100% - - 52° 53.2° 41.3° - - -
2/27 12:10pm 174 6 G 13 52° 100% - - 52° 53.2° 41.3° - - -
2/27 12:00pm 191 7 G 14 52° 100% - - 52° 53.2° 41.3° - - -
2/27 11:50am 188 3 G 11 52° 100% - - 52° 53.2° 41.3° - - -
2/27 11:40am 182 4 G 10 52° 99% - - 52° 53.2° 41.3° - - -
2/27 11:30am 200 4 G 8 52° 99% - - 52° 53.2° 41.3° - - -
2/27 11:20am 181 5 G 10 52° 99% - - 52° 53.2° 41.3° - - -
2/27 11:10am 181 8 G 17 52° 99% - - 52° 53.2° 41.3° - - -
2/27 11:00am 179 8 G 15 53° 99% - - 53° 53.2° 41.3° - - -
2/27 10:50am 174 9 G 19 53° 99% - - 53° 53.2° 41.3° - - -
2/27 10:40am 171 10 G 16 53° 99% - - 53° 53.2° 41.3° - - -
2/27 10:30am 171 9 G 17 53° 100% - - 53° 53.2° 41.3° - - -
2/27 10:20am 187 8 G 16 53° 100% - - 53° 53.2° 41.3° - - -
2/27 10:10am 194 7 G 15 53° 100% - - 53° 53.2° 41.3° - - -
2/27 10:00am 198 7 G 13 53° 100% - - 53° 53.2° 41.3° - - -
2/27 9:50am 189 4 G 10 53° 100% - - 53° 53.2° 41.3° - - -
2/27 9:40am 189 4 G 10 53° 100% - - 53° 53.2° 41.3° - - -
2/27 9:30am 189 2 G 6 53° 100% - - 53° 53.2° 41.3° - - -
2/27 9:20am 199 5 G 15 53° 100% - - 53° 53.2° 41.3° - - -
2/27 9:10am 205 5 G 13 53° 100% - - 53° 53.2° 41.3° - - -
2/27 9:00am 182 5 G 10 53° 100% - - 53° 53.2° 41.3° - - -
2/27 8:50am 179 6 G 12 53° 100% - - 53° 53.2° 41.3° - - -
2/27 8:40am 178 5 G 14 53° 100% - - 53° 53.2° 41.3° - - -
2/27 8:30am 190 2 G 6 53° 100% - - 53° 53.2° 41.3° - - -
2/27 8:20am 197 4 G 8 53° 100% - - 53° 53.1° 41.3° - - -
2/27 8:10am 188 5 G 9 53° 100% - - 53° 53° 41.3° - - -
2/27 8:00am 175 5 G 10 53° 100% - - 53° 52.8° 41.3° - - -
2/27 7:50am 180 5 G 10 52° 100% - - 52° 52.7° 41.3° - - -
2/27 7:40am 175 5 G 10 52° 100% - - 52° 52.4° 41.3° - - -
2/27 7:30am 169 5 G 11 52° 100% - - 52° 52° 41.3° - - -
2/27 7:20am 157 4 G 7 51° 100% - - 51° 51.4° 41.3° - - -
2/27 7:10am 140 3 G 6 50° 100% - - 50° 50.7° 41.3° - - -
2/27 7:00am 130 2 G 5 50° 100% - - 50° 50.1° 41.3° - - -
2/27 6:50am 134 2 G 5 49° 100% - - 49° 49.5° 41.3° - - -
2/27 6:40am 133 3 G 6 49° 100% - - 49° 49° 41.3° - - -
2/27 6:30am 120 2 G 4 48° 100% - - 48° 48.8° 41.3° - - -
2/27 6:20am 116 2 G 4 48° 100% - - 48° 48.8° 41.3° - - -
2/27 6:10am 123 3 G 5 48° 100% - - 48° 48.8° 41.3° - - -
2/27 6:00am 132 2 G 4 47° 100% - - 47° 48.8° 41.3° - - -
2/27 5:50am 98 2 G 4 48° 100% - - 48° 48.8° 41.3° - - -
2/27 5:40am 47 1 G 3 47° 100% - - 47° 48.8° 41.3° - - -
2/27 5:30am 360 3 G 5 46° 100% - - 46° 48.8° 41.3° - - -
2/27 5:20am 322 4 G 7 46° 100% - - 46° 48.8° 41.3° - - -
2/27 5:10am 267 1 G 3 48° 100% - - 48° 48.8° 41.3° - - -
2/27 5:00am 116 2 G 4 49° 100% - - 49° 48.8° 41.3° - - -
2/27 4:50am 46 1 G 3 48° 100% - - 48° 48.6° 41.3° - - -
2/27 4:40am 92 2 G 5 48° 100% - - 48° 48.2° 41.3° - - -
2/27 4:30am 67 3 G 5 48° 100% - - 48° 48.2° 41.3° - - -
2/27 4:20am 99 2 G 5 47° 100% - - 47° 47.6° 41.3° - - -
2/27 4:10am 116 2 G 5 47° 100% - - 47° 47.2° 41.3° - - -
2/27 4:00am 118 2 G 4 47° 100% - - 47° 47.1° 41.3° - - -
2/27 3:50am 112 3 G 6 47° 100% - - 47° 47° 41.3° - - -
2/27 3:40am 108 3 G 5 46° 100% - - 46° 46.8° 41.3° - - -
2/27 3:30am 103 2 G 4 46° 100% - - 46° 46.5° 41.3° - - -
2/27 3:20am 108 2 G 4 46° 100% - - 46° 46.3° 41.3° - - -
2/27 3:10am 113 2 G 5 46° 100% - - 46° 46.1° 41.3° - - -
2/27 3:00am 117 1 G 2 46° 100% - - 46° 46° 41.3° - - -
2/27 2:50am 125 1 G 3 46° 100% - - 46° 45.9° 41.3° - - -
2/27 2:40am 128 1 G 4 45° 100% - - 45° 45.7° 41.3° - - -
2/27 2:30am 121 2 G 4 45° 99% - - 45° 45.6° 41.3° - - -
2/27 2:20am 104 3 G 4 45° 99% - - 45° 45.6° 41.3° - - -
2/27 2:10am 99 2 G 4 45° 98% - - 44° 45.6° 41.3° - - -
2/27 2:00am 102 3 G 4 45° 96% - - 44° 45.6° 41.3° - - -
2/27 1:50am 124 1 G 2 45° 90% - - 42° 45.6° 41.3° - - -
2/27 1:40am 82 2 G 3 45° 88% - - 42° 45.6° 41.3° - - -
2/27 1:30am 119 1 G 3 45° 86% - - 41° 45.6° 41.3° - - -
2/27 1:20am 130 1 G 3 45° 84% - - 41° 45.4° 41.3° - - -
2/27 1:10am 108 2 G 4 45° 84% - - 40° 45.1° 41.3° - - -
2/27 1:00am 128 2 G 7 44° 84% - - 40° 44.5° 41.3° - - -
2/27 12:50am 149 2 G 5 43° 85% - - 39° 43.8° 41.3° - - -
2/27 12:40am 141 2 G 5 43° 85% - - 39° 43.1° 41.3° - - -
2/27 12:30am 131 1 G 3 43° 85% - - 38° 42.9° 41.3° - - -
2/27 12:20am 164 1 G 2 42° 86% - - 38° 42.3° 41.3° - - -
2/27 12:10am 135 1 G 3 42° 86% - - 38° 41.8° 41.3° - - -
2/27 12:00am 155 1 G 3 42° 84% - - 38° 53° 41.6° - - -
2/26 11:50pm 114 1 G 3 43° 84% - - 38° 53° 42.6° - - -
2/26 11:40pm 89 2 G 5 43° 85% - - 39° 53° 42.6° - - -
2/26 11:30pm 105 2 G 5 43° 86% - - 39° 53° 42.6° - - -
2/26 11:20pm 100 2 G 4 43° 86% - - 39° 53° 42.7° - - -
2/26 11:10pm 104 2 G 4 43° 86% - - 39° 53° 42.7° - - -
2/26 11:00pm 129 2 G 3 43° 86% - - 39° 53° 42.9° - - -
2/26 10:50pm 137 3 G 4 44° 85% - - 39° 53° 43.2° - - -
2/26 10:40pm 117 1 G 2 44° 85% - - 40° 53° 43.6° - - -
2/26 10:30pm 116 2 G 2 44° 86% - - 40° 53° 43.7° - - -
2/26 10:20pm 107 2 G 3 44° 85% - - 40° 53° 44° - - -
2/26 10:10pm 109 2 G 4 45° 86% - - 40° 53° 44.2° - - -
2/26 10:00pm 117 2 G 4 45° 86% - - 41° 53° 44.4° - - -
2/26 9:50pm 124 3 G 4 45° 86% - - 41° 53° 44.4° - - -
2/26 9:40pm 125 2 G 4 45° 86% - - 41° 53° 44.4° - - -
2/26 9:30pm 117 2 G 4 46° 85% - - 41° 53° 44.4° - - -
2/26 9:20pm 106 2 G 4 46° 85% - - 41° 53° 44.4° - - -
2/26 9:10pm 92 2 G 3 45° 87% - - 42° 53° 44.4° - - -
2/26 9:00pm 94 2 G 5 45° 88% - - 42° 53° 44.4° - - -
2/26 8:50pm 99 3 G 4 45° 88% - - 42° 53° 44.4° - - -
2/26 8:40pm 111 3 G 4 45° 88% - - 41° 53° 44.4° - - -
2/26 8:30pm 113 1 G 3 45° 88% - - 42° 53° 44.4° - - -
2/26 8:20pm 129 1 G 2 45° 88% - - 42° 53° 44.4° - - -
2/26 8:10pm 143 1 G 3 45° 88% - - 41° 53° 44.4° - - -
2/26 8:00pm 132 3 G 4 45° 86% - - 41° 53° 44.4° - - -
2/26 7:50pm 135 2 G 4 45° 86% - - 41° 53° 44.4° - - -
2/26 7:40pm 131 2 G 3 45° 86% - - 41° 53° 44.4° - - -
2/26 7:30pm 118 1 G 2 45° 85% - - 41° 53° 44.4° - - -
2/26 7:20pm 112 1 G 2 45° 84% - - 41° 53° 44.4° - - -
2/26 7:10pm 130 2 G 3 46° 84% - - 41° 53° 44.4° - - -
2/26 7:00pm 201 1 G 3 46° 82% - - 41° 53° 44.4° - - -
2/26 6:50pm 214 2 G 5 46° 82% - - 41° 53° 44.4° - - -
2/26 6:40pm 211 1 G 3 46° 81% - - 41° 53° 44.4° - - -
2/26 6:30pm 214 3 G 7 47° 80% - - 41° 53° 44.4° - - -
2/26 6:20pm 204 2 G 6 47° 79% - - 41° 53° 44.4° - - -
2/26 6:10pm 217 2 G 5 48° 77% - - 41° 53° 44.4° - - -
2/26 6:00pm 229 5 G 11 48° 78% - - 41° 53° 44.4° - - -
2/26 5:50pm 239 6 G 10 48° 83% - - 43° 53° 44.4° - - -
2/26 5:40pm 234 4 G 7 49° 84% - - 44° 53° 44.4° - - -
2/26 5:30pm 245 5 G 8 49° 83% - - 44° 53° 44.4° - - -
2/26 5:20pm 237 7 G 11 49° 82% - - 44° 53° 44.4° - - -
2/26 5:10pm 232 5 G 11 50° 81% - - 44° 53° 44.4° - - -
2/26 5:00pm 189 3 G 8 50° 81% - - 44° 53° 44.4° - - -